sensor_id;sensor_type;location;lat;lon;timestamp;P1;durP1;ratioP1;P2;durP2;ratioP2
58657;SDS011;44428;45.630;13.786;2022-12-11T00:01:42;0.38;;;0.20;;
58657;SDS011;44428;45.630;13.786;2022-12-11T00:04:08;0.30;;;0.30;;
58657;SDS011;44428;45.630;13.786;2022-12-11T00:06:34;0.20;;;0.20;;
58657;SDS011;44428;45.630;13.786;2022-12-11T00:09:00;0.40;;;0.30;;
58657;SDS011;44428;45.630;13.786;2022-12-11T00:11:26;0.43;;;0.20;;
58657;SDS011;44428;45.630;13.786;2022-12-11T00:13:52;0.20;;;0.20;;
58657;SDS011;44428;45.630;13.786;2022-12-11T00:16:17;0.28;;;0.25;;
58657;SDS011;44428;45.630;13.786;2022-12-11T00:18:43;0.73;;;0.40;;
58657;SDS011;44428;45.630;13.786;2022-12-11T00:21:10;0.20;;;0.20;;
58657;SDS011;44428;45.630;13.786;2022-12-11T00:23:38;0.68;;;0.38;;
58657;SDS011;44428;45.630;13.786;2022-12-11T00:26:05;0.35;;;0.28;;
58657;SDS011;44428;45.630;13.786;2022-12-11T00:28:32;0.82;;;0.20;;
58657;SDS011;44428;45.630;13.786;2022-12-11T00:30:58;1.70;;;0.20;;
58657;SDS011;44428;45.630;13.786;2022-12-11T00:33:25;0.30;;;0.30;;
58657;SDS011;44428;45.630;13.786;2022-12-11T00:35:51;0.60;;;0.30;;
58657;SDS011;44428;45.630;13.786;2022-12-11T00:38:18;0.68;;;0.40;;
58657;SDS011;44428;45.630;13.786;2022-12-11T00:40:45;0.52;;;0.25;;
58657;SDS011;44428;45.630;13.786;2022-12-11T00:43:11;0.68;;;0.30;;
58657;SDS011;44428;45.630;13.786;2022-12-11T00:45:37;0.60;;;0.30;;
58657;SDS011;44428;45.630;13.786;2022-12-11T00:48:08;0.50;;;0.30;;
58657;SDS011;44428;45.630;13.786;2022-12-11T00:50:34;1.55;;;0.38;;
58657;SDS011;44428;45.630;13.786;2022-12-11T00:53:01;0.30;;;0.30;;
58657;SDS011;44428;45.630;13.786;2022-12-11T00:55:27;1.20;;;0.30;;
58657;SDS011;44428;45.630;13.786;2022-12-11T00:57:53;0.57;;;0.30;;
58657;SDS011;44428;45.630;13.786;2022-12-11T01:00:20;0.65;;;0.20;;
58657;SDS011;44428;45.630;13.786;2022-12-11T01:02:47;0.43;;;0.30;;
58657;SDS011;44428;45.630;13.786;2022-12-11T01:05:14;0.30;;;0.20;;
58657;SDS011;44428;45.630;13.786;2022-12-11T01:07:40;0.32;;;0.30;;
58657;SDS011;44428;45.630;13.786;2022-12-11T01:10:06;0.43;;;0.22;;
58657;SDS011;44428;45.630;13.786;2022-12-11T01:13:00;0.75;;;0.20;;
58657;SDS011;44428;45.630;13.786;2022-12-11T01:15:33;0.30;;;0.30;;
58657;SDS011;44428;45.630;13.786;2022-12-11T01:18:03;0.57;;;0.40;;
58657;SDS011;44428;45.630;13.786;2022-12-11T01:20:29;0.22;;;0.22;;
58657;SDS011;44428;45.630;13.786;2022-12-11T01:22:56;0.52;;;0.38;;
58657;SDS011;44428;45.630;13.786;2022-12-11T01:25:24;0.77;;;0.35;;
58657;SDS011;44428;45.630;13.786;2022-12-11T01:27:50;0.68;;;0.30;;
58657;SDS011;44428;45.630;13.786;2022-12-11T01:30:18;1.15;;;0.30;;
58657;SDS011;44428;45.630;13.786;2022-12-11T01:32:45;0.73;;;0.35;;
58657;SDS011;44428;45.630;13.786;2022-12-11T01:35:11;0.30;;;0.30;;
58657;SDS011;44428;45.630;13.786;2022-12-11T01:37:37;0.30;;;0.30;;
58657;SDS011;44428;45.630;13.786;2022-12-11T01:40:04;0.57;;;0.20;;
58657;SDS011;44428;45.630;13.786;2022-12-11T01:42:31;0.85;;;0.30;;
58657;SDS011;44428;45.630;13.786;2022-12-11T01:47:42;1.75;;;0.63;;
58657;SDS011;44428;45.630;13.786;2022-12-11T01:50:08;0.40;;;0.30;;
58657;SDS011;44428;45.630;13.786;2022-12-11T01:52:34;1.08;;;0.30;;
58657;SDS011;44428;45.630;13.786;2022-12-11T01:55:00;0.73;;;0.30;;
58657;SDS011;44428;45.630;13.786;2022-12-11T01:57:26;0.32;;;0.30;;
58657;SDS011;44428;45.630;13.786;2022-12-11T01:59:52;0.88;;;0.40;;
58657;SDS011;44428;45.630;13.786;2022-12-11T02:02:19;0.60;;;0.30;;
58657;SDS011;44428;45.630;13.786;2022-12-11T02:04:52;0.45;;;0.32;;
58657;SDS011;44428;45.630;13.786;2022-12-11T02:07:18;1.75;;;0.30;;
58657;SDS011;44428;45.630;13.786;2022-12-11T02:09:44;0.85;;;0.52;;
58657;SDS011;44428;45.630;13.786;2022-12-11T02:12:18;0.63;;;0.30;;
58657;SDS011;44428;45.630;13.786;2022-12-11T02:15:33;0.20;;;0.20;;
58657;SDS011;44428;45.630;13.786;2022-12-11T02:18:08;0.60;;;0.40;;
58657;SDS011;44428;45.630;13.786;2022-12-11T02:20:37;1.20;;;0.35;;
58657;SDS011;44428;45.630;13.786;2022-12-11T02:36:22;2.10;;;0.30;;
58657;SDS011;44428;45.630;13.786;2022-12-11T02:38:51;0.85;;;0.40;;
58657;SDS011;44428;45.630;13.786;2022-12-11T02:41:21;2.10;;;0.40;;
58657;SDS011;44428;45.630;13.786;2022-12-11T02:43:49;0.90;;;0.50;;
58657;SDS011;44428;45.630;13.786;2022-12-11T02:46:15;0.45;;;0.32;;
58657;SDS011;44428;45.630;13.786;2022-12-11T02:48:44;0.55;;;0.30;;
58657;SDS011;44428;45.630;13.786;2022-12-11T02:51:13;0.57;;;0.47;;
58657;SDS011;44428;45.630;13.786;2022-12-11T02:53:41;0.60;;;0.30;;
58657;SDS011;44428;45.630;13.786;2022-12-11T02:58:47;0.30;;;0.30;;
58657;SDS011;44428;45.630;13.786;2022-12-11T03:01:16;1.35;;;0.50;;
58657;SDS011;44428;45.630;13.786;2022-12-11T03:03:42;1.02;;;0.38;;
58657;SDS011;44428;45.630;13.786;2022-12-11T03:06:09;0.73;;;0.38;;
58657;SDS011;44428;45.630;13.786;2022-12-11T03:08:39;0.30;;;0.30;;
58657;SDS011;44428;45.630;13.786;2022-12-11T03:11:08;0.73;;;0.38;;
58657;SDS011;44428;45.630;13.786;2022-12-11T03:13:37;0.25;;;0.25;;
58657;SDS011;44428;45.630;13.786;2022-12-11T03:18:57;1.00;;;0.32;;
58657;SDS011;44428;45.630;13.786;2022-12-11T03:21:52;0.63;;;0.40;;
58657;SDS011;44428;45.630;13.786;2022-12-11T03:24:27;0.32;;;0.30;;
58657;SDS011;44428;45.630;13.786;2022-12-11T03:26:58;0.30;;;0.30;;
58657;SDS011;44428;45.630;13.786;2022-12-11T03:29:34;0.43;;;0.25;;
58657;SDS011;44428;45.630;13.786;2022-12-11T03:32:08;0.30;;;0.30;;
58657;SDS011;44428;45.630;13.786;2022-12-11T03:34:42;0.30;;;0.30;;
58657;SDS011;44428;45.630;13.786;2022-12-11T03:37:11;0.30;;;0.30;;
58657;SDS011;44428;45.630;13.786;2022-12-11T03:39:41;0.30;;;0.30;;
58657;SDS011;44428;45.630;13.786;2022-12-11T03:42:10;0.55;;;0.38;;
58657;SDS011;44428;45.630;13.786;2022-12-11T03:44:38;0.28;;;0.28;;
58657;SDS011;44428;45.630;13.786;2022-12-11T03:47:08;0.20;;;0.20;;
58657;SDS011;44428;45.630;13.786;2022-12-11T03:49:38;0.43;;;0.30;;
58657;SDS011;44428;45.630;13.786;2022-12-11T03:52:07;0.25;;;0.25;;
58657;SDS011;44428;45.630;13.786;2022-12-11T03:54:35;0.35;;;0.32;;
58657;SDS011;44428;45.630;13.786;2022-12-11T03:57:03;0.63;;;0.30;;
58657;SDS011;44428;45.630;13.786;2022-12-11T03:59:30;1.00;;;0.40;;
58657;SDS011;44428;45.630;13.786;2022-12-11T04:01:56;0.32;;;0.30;;
58657;SDS011;44428;45.630;13.786;2022-12-11T04:04:22;0.63;;;0.30;;
58657;SDS011;44428;45.630;13.786;2022-12-11T04:06:48;1.23;;;0.40;;
58657;SDS011;44428;45.630;13.786;2022-12-11T04:09:14;1.00;;;0.47;;
58657;SDS011;44428;45.630;13.786;2022-12-11T04:11:39;0.50;;;0.30;;
58657;SDS011;44428;45.630;13.786;2022-12-11T04:14:11;0.50;;;0.32;;
58657;SDS011;44428;45.630;13.786;2022-12-11T04:16:57;0.35;;;0.35;;
58657;SDS011;44428;45.630;13.786;2022-12-11T04:19:24;1.00;;;0.40;;
58657;SDS011;44428;45.630;13.786;2022-12-11T04:22:12;0.40;;;0.40;;
58657;SDS011;44428;45.630;13.786;2022-12-11T04:24:58;0.40;;;0.40;;
58657;SDS011;44428;45.630;13.786;2022-12-11T04:27:25;0.43;;;0.40;;
58657;SDS011;44428;45.630;13.786;2022-12-11T04:30:11;0.40;;;0.40;;
58657;SDS011;44428;45.630;13.786;2022-12-11T04:32:39;1.45;;;0.43;;
58657;SDS011;44428;45.630;13.786;2022-12-11T04:35:06;0.40;;;0.38;;
58657;SDS011;44428;45.630;13.786;2022-12-11T04:37:33;0.63;;;0.40;;
58657;SDS011;44428;45.630;13.786;2022-12-11T04:39:59;0.43;;;0.30;;
58657;SDS011;44428;45.630;13.786;2022-12-11T04:42:25;0.65;;;0.50;;
58657;SDS011;44428;45.630;13.786;2022-12-11T04:44:51;0.88;;;0.40;;
58657;SDS011;44428;45.630;13.786;2022-12-11T04:47:16;1.00;;;0.50;;
58657;SDS011;44428;45.630;13.786;2022-12-11T04:49:42;0.73;;;0.45;;
58657;SDS011;44428;45.630;13.786;2022-12-11T04:52:08;0.30;;;0.30;;
58657;SDS011;44428;45.630;13.786;2022-12-11T04:54:33;0.80;;;0.47;;
58657;SDS011;44428;45.630;13.786;2022-12-11T04:56:59;0.40;;;0.30;;
58657;SDS011;44428;45.630;13.786;2022-12-11T04:59:25;0.40;;;0.30;;
58657;SDS011;44428;45.630;13.786;2022-12-11T05:01:51;1.35;;;0.45;;
58657;SDS011;44428;45.630;13.786;2022-12-11T05:04:16;0.52;;;0.43;;
58657;SDS011;44428;45.630;13.786;2022-12-11T05:06:42;0.77;;;0.47;;
58657;SDS011;44428;45.630;13.786;2022-12-11T05:09:11;0.50;;;0.40;;
58657;SDS011;44428;45.630;13.786;2022-12-11T05:11:37;0.40;;;0.40;;
58657;SDS011;44428;45.630;13.786;2022-12-11T05:14:02;0.90;;;0.50;;
58657;SDS011;44428;45.630;13.786;2022-12-11T05:16:28;0.73;;;0.43;;
58657;SDS011;44428;45.630;13.786;2022-12-11T05:18:54;1.13;;;0.50;;
58657;SDS011;44428;45.630;13.786;2022-12-11T05:21:20;0.85;;;0.43;;
58657;SDS011;44428;45.630;13.786;2022-12-11T05:23:45;0.90;;;0.50;;
58657;SDS011;44428;45.630;13.786;2022-12-11T05:26:13;0.80;;;0.43;;
58657;SDS011;44428;45.630;13.786;2022-12-11T05:28:41;0.40;;;0.40;;
58657;SDS011;44428;45.630;13.786;2022-12-11T05:31:10;0.55;;;0.50;;
58657;SDS011;44428;45.630;13.786;2022-12-11T05:33:39;0.52;;;0.43;;
58657;SDS011;44428;45.630;13.786;2022-12-11T05:36:05;0.85;;;0.60;;
58657;SDS011;44428;45.630;13.786;2022-12-11T05:38:31;1.50;;;0.70;;
58657;SDS011;44428;45.630;13.786;2022-12-11T05:40:58;0.95;;;0.50;;
58657;SDS011;44428;45.630;13.786;2022-12-11T05:43:28;0.38;;;0.38;;
58657;SDS011;44428;45.630;13.786;2022-12-11T05:45:56;0.85;;;0.50;;
58657;SDS011;44428;45.630;13.786;2022-12-11T05:48:30;1.25;;;0.60;;
58657;SDS011;44428;45.630;13.786;2022-12-11T05:50:56;0.73;;;0.55;;
58657;SDS011;44428;45.630;13.786;2022-12-11T05:53:23;0.82;;;0.60;;
58657;SDS011;44428;45.630;13.786;2022-12-11T05:55:49;0.88;;;0.40;;
58657;SDS011;44428;45.630;13.786;2022-12-11T05:58:15;0.70;;;0.50;;
58657;SDS011;44428;45.630;13.786;2022-12-11T06:00:41;0.93;;;0.50;;
58657;SDS011;44428;45.630;13.786;2022-12-11T06:03:07;0.70;;;0.55;;
58657;SDS011;44428;45.630;13.786;2022-12-11T06:05:36;1.00;;;0.60;;
58657;SDS011;44428;45.630;13.786;2022-12-11T06:08:02;1.92;;;0.70;;
58657;SDS011;44428;45.630;13.786;2022-12-11T06:10:28;0.38;;;0.32;;
58657;SDS011;44428;45.630;13.786;2022-12-11T06:12:54;0.40;;;0.40;;
58657;SDS011;44428;45.630;13.786;2022-12-11T06:15:20;0.82;;;0.50;;
58657;SDS011;44428;45.630;13.786;2022-12-11T06:17:46;1.05;;;0.57;;
58657;SDS011;44428;45.630;13.786;2022-12-11T06:20:12;1.10;;;0.60;;
58657;SDS011;44428;45.630;13.786;2022-12-11T06:22:37;1.30;;;0.82;;
58657;SDS011;44428;45.630;13.786;2022-12-11T06:25:03;0.38;;;0.38;;
58657;SDS011;44428;45.630;13.786;2022-12-11T06:27:29;1.02;;;0.50;;
58657;SDS011;44428;45.630;13.786;2022-12-11T06:29:55;1.08;;;0.52;;
58657;SDS011;44428;45.630;13.786;2022-12-11T06:32:21;0.85;;;0.65;;
58657;SDS011;44428;45.630;13.786;2022-12-11T06:34:47;1.35;;;0.70;;
58657;SDS011;44428;45.630;13.786;2022-12-11T06:37:12;2.25;;;0.75;;
58657;SDS011;44428;45.630;13.786;2022-12-11T06:39:38;0.70;;;0.47;;
58657;SDS011;44428;45.630;13.786;2022-12-11T06:42:04;0.90;;;0.50;;
58657;SDS011;44428;45.630;13.786;2022-12-11T06:44:30;0.75;;;0.50;;
58657;SDS011;44428;45.630;13.786;2022-12-11T06:46:55;0.80;;;0.50;;
58657;SDS011;44428;45.630;13.786;2022-12-11T06:49:21;0.82;;;0.57;;
58657;SDS011;44428;45.630;13.786;2022-12-11T06:51:47;0.95;;;0.50;;
58657;SDS011;44428;45.630;13.786;2022-12-11T06:54:13;1.10;;;0.50;;
58657;SDS011;44428;45.630;13.786;2022-12-11T06:56:38;1.33;;;0.68;;
58657;SDS011;44428;45.630;13.786;2022-12-11T06:59:04;1.25;;;0.88;;
58657;SDS011;44428;45.630;13.786;2022-12-11T07:01:30;0.65;;;0.50;;
58657;SDS011;44428;45.630;13.786;2022-12-11T07:03:56;1.17;;;0.70;;
58657;SDS011;44428;45.630;13.786;2022-12-11T07:06:48;2.50;;;0.95;;
58657;SDS011;44428;45.630;13.786;2022-12-11T07:09:14;0.75;;;0.60;;
58657;SDS011;44428;45.630;13.786;2022-12-11T07:11:40;1.30;;;0.80;;
58657;SDS011;44428;45.630;13.786;2022-12-11T07:14:06;1.35;;;0.82;;
58657;SDS011;44428;45.630;13.786;2022-12-11T07:16:31;1.02;;;0.60;;
58657;SDS011;44428;45.630;13.786;2022-12-11T07:18:57;1.85;;;0.75;;
58657;SDS011;44428;45.630;13.786;2022-12-11T07:21:23;1.23;;;0.70;;
58657;SDS011;44428;45.630;13.786;2022-12-11T07:23:49;0.73;;;0.57;;
58657;SDS011;44428;45.630;13.786;2022-12-11T07:26:15;0.90;;;0.60;;
58657;SDS011;44428;45.630;13.786;2022-12-11T07:28:43;1.20;;;0.60;;
58657;SDS011;44428;45.630;13.786;2022-12-11T07:31:13;0.50;;;0.50;;
58657;SDS011;44428;45.630;13.786;2022-12-11T07:33:41;1.30;;;0.70;;
58657;SDS011;44428;45.630;13.786;2022-12-11T07:36:08;1.27;;;0.80;;
58657;SDS011;44428;45.630;13.786;2022-12-11T07:38:35;1.05;;;0.73;;
58657;SDS011;44428;45.630;13.786;2022-12-11T07:41:05;1.65;;;0.73;;
58657;SDS011;44428;45.630;13.786;2022-12-11T07:43:33;1.23;;;0.70;;
58657;SDS011;44428;45.630;13.786;2022-12-11T07:46:04;1.08;;;0.80;;
58657;SDS011;44428;45.630;13.786;2022-12-11T07:48:33;1.42;;;0.68;;
58657;SDS011;44428;45.630;13.786;2022-12-11T07:51:07;1.48;;;0.90;;
58657;SDS011;44428;45.630;13.786;2022-12-11T07:53:33;1.05;;;0.80;;
58657;SDS011;44428;45.630;13.786;2022-12-11T07:55:59;1.25;;;0.77;;
58657;SDS011;44428;45.630;13.786;2022-12-11T07:58:25;1.45;;;0.80;;
58657;SDS011;44428;45.630;13.786;2022-12-11T08:00:50;1.65;;;0.63;;
58657;SDS011;44428;45.630;13.786;2022-12-11T08:03:16;1.20;;;0.77;;
58657;SDS011;44428;45.630;13.786;2022-12-11T08:05:48;2.13;;;0.70;;
58657;SDS011;44428;45.630;13.786;2022-12-11T08:08:15;1.98;;;0.90;;
58657;SDS011;44428;45.630;13.786;2022-12-11T08:10:41;1.50;;;0.90;;
58657;SDS011;44428;45.630;13.786;2022-12-11T08:13:08;1.45;;;0.73;;
58657;SDS011;44428;45.630;13.786;2022-12-11T08:15:34;2.22;;;0.95;;
58657;SDS011;44428;45.630;13.786;2022-12-11T08:18:00;3.05;;;1.00;;
58657;SDS011;44428;45.630;13.786;2022-12-11T08:20:26;1.75;;;0.90;;
58657;SDS011;44428;45.630;13.786;2022-12-11T08:22:51;2.67;;;1.00;;
58657;SDS011;44428;45.630;13.786;2022-12-11T08:25:17;1.00;;;0.75;;
58657;SDS011;44428;45.630;13.786;2022-12-11T08:27:43;1.15;;;0.70;;
58657;SDS011;44428;45.630;13.786;2022-12-11T08:30:09;2.03;;;1.00;;
58657;SDS011;44428;45.630;13.786;2022-12-11T08:32:35;1.25;;;0.80;;
58657;SDS011;44428;45.630;13.786;2022-12-11T08:35:01;2.03;;;0.90;;
58657;SDS011;44428;45.630;13.786;2022-12-11T08:37:27;1.75;;;1.00;;
58657;SDS011;44428;45.630;13.786;2022-12-11T08:39:53;2.90;;;1.00;;
58657;SDS011;44428;45.630;13.786;2022-12-11T08:42:19;1.73;;;0.93;;
58657;SDS011;44428;45.630;13.786;2022-12-11T08:44:45;1.42;;;0.85;;
58657;SDS011;44428;45.630;13.786;2022-12-11T08:47:11;1.80;;;1.05;;
58657;SDS011;44428;45.630;13.786;2022-12-11T08:49:37;2.60;;;0.95;;
58657;SDS011;44428;45.630;13.786;2022-12-11T08:52:03;1.75;;;0.90;;
58657;SDS011;44428;45.630;13.786;2022-12-11T08:54:29;1.50;;;0.95;;
58657;SDS011;44428;45.630;13.786;2022-12-11T08:56:55;1.58;;;0.80;;
58657;SDS011;44428;45.630;13.786;2022-12-11T08:59:21;1.63;;;0.77;;
58657;SDS011;44428;45.630;13.786;2022-12-11T09:01:47;1.45;;;0.90;;
58657;SDS011;44428;45.630;13.786;2022-12-11T09:04:12;2.05;;;1.00;;
58657;SDS011;44428;45.630;13.786;2022-12-11T09:06:38;1.52;;;0.80;;
58657;SDS011;44428;45.630;13.786;2022-12-11T09:09:04;2.78;;;0.95;;
58657;SDS011;44428;45.630;13.786;2022-12-11T09:11:31;3.58;;;1.20;;
58657;SDS011;44428;45.630;13.786;2022-12-11T09:13:58;1.10;;;0.82;;
58657;SDS011;44428;45.630;13.786;2022-12-11T09:16:25;1.95;;;0.90;;
58657;SDS011;44428;45.630;13.786;2022-12-11T09:18:52;1.50;;;0.90;;
58657;SDS011;44428;45.630;13.786;2022-12-11T09:21:20;1.40;;;0.82;;
58657;SDS011;44428;45.630;13.786;2022-12-11T09:23:47;2.13;;;1.00;;
58657;SDS011;44428;45.630;13.786;2022-12-11T09:26:15;2.00;;;0.90;;
58657;SDS011;44428;45.630;13.786;2022-12-11T09:28:42;1.40;;;0.93;;
58657;SDS011;44428;45.630;13.786;2022-12-11T09:31:09;1.63;;;0.90;;
58657;SDS011;44428;45.630;13.786;2022-12-11T09:33:37;1.60;;;1.02;;
58657;SDS011;44428;45.630;13.786;2022-12-11T09:36:03;1.52;;;0.90;;
58657;SDS011;44428;45.630;13.786;2022-12-11T09:38:29;1.95;;;0.93;;
58657;SDS011;44428;45.630;13.786;2022-12-11T09:40:56;4.70;;;1.20;;
58657;SDS011;44428;45.630;13.786;2022-12-11T09:43:42;1.63;;;0.98;;
58657;SDS011;44428;45.630;13.786;2022-12-11T09:46:17;2.80;;;1.05;;
58657;SDS011;44428;45.630;13.786;2022-12-11T09:48:44;2.78;;;1.30;;
58657;SDS011;44428;45.630;13.786;2022-12-11T09:51:13;2.33;;;1.10;;
58657;SDS011;44428;45.630;13.786;2022-12-11T09:53:46;1.63;;;0.90;;
58657;SDS011;44428;45.630;13.786;2022-12-11T09:56:15;2.55;;;1.20;;
58657;SDS011;44428;45.630;13.786;2022-12-11T09:58:54;2.13;;;1.25;;
58657;SDS011;44428;45.630;13.786;2022-12-11T10:12:13;2.42;;;1.20;;
58657;SDS011;44428;45.630;13.786;2022-12-11T10:17:32;1.58;;;0.98;;
58657;SDS011;44428;45.630;13.786;2022-12-11T10:22:48;2.30;;;1.17;;
58657;SDS011;44428;45.630;13.786;2022-12-11T10:25:21;2.35;;;1.30;;
58657;SDS011;44428;45.630;13.786;2022-12-11T10:27:51;2.10;;;1.17;;
58657;SDS011;44428;45.630;13.786;2022-12-11T10:30:21;4.63;;;2.00;;
58657;SDS011;44428;45.630;13.786;2022-12-11T10:32:51;3.90;;;1.80;;
58657;SDS011;44428;45.630;13.786;2022-12-11T10:35:59;3.08;;;1.50;;
58657;SDS011;44428;45.630;13.786;2022-12-11T10:41:13;2.63;;;1.40;;
58657;SDS011;44428;45.630;13.786;2022-12-11T10:43:47;2.10;;;1.20;;
58657;SDS011;44428;45.630;13.786;2022-12-11T10:46:15;2.65;;;1.45;;
58657;SDS011;44428;45.630;13.786;2022-12-11T10:48:56;3.60;;;1.50;;
58657;SDS011;44428;45.630;13.786;2022-12-11T10:54:01;3.17;;;1.60;;
58657;SDS011;44428;45.630;13.786;2022-12-11T10:56:31;3.63;;;1.75;;
58657;SDS011;44428;45.630;13.786;2022-12-11T10:58:59;1.63;;;0.95;;
58657;SDS011;44428;45.630;13.786;2022-12-11T11:01:26;2.88;;;1.42;;
58657;SDS011;44428;45.630;13.786;2022-12-11T11:03:58;2.75;;;1.27;;
58657;SDS011;44428;45.630;13.786;2022-12-11T11:06:28;2.40;;;1.40;;
58657;SDS011;44428;45.630;13.786;2022-12-11T11:08:55;2.72;;;1.45;;
58657;SDS011;44428;45.630;13.786;2022-12-11T11:11:30;3.10;;;1.58;;
58657;SDS011;44428;45.630;13.786;2022-12-11T11:16:29;2.65;;;1.45;;
58657;SDS011;44428;45.630;13.786;2022-12-11T11:18:56;3.20;;;1.60;;
58657;SDS011;44428;45.630;13.786;2022-12-11T11:21:23;2.88;;;1.63;;
58657;SDS011;44428;45.630;13.786;2022-12-11T11:23:51;4.18;;;2.03;;
58657;SDS011;44428;45.630;13.786;2022-12-11T11:26:18;4.93;;;1.63;;
58657;SDS011;44428;45.630;13.786;2022-12-11T11:28:48;3.70;;;2.00;;
58657;SDS011;44428;45.630;13.786;2022-12-11T11:31:17;5.05;;;1.75;;
58657;SDS011;44428;45.630;13.786;2022-12-11T11:36:25;3.45;;;1.98;;
58657;SDS011;44428;45.630;13.786;2022-12-11T11:41:24;3.57;;;1.93;;
58657;SDS011;44428;45.630;13.786;2022-12-11T11:51:24;3.85;;;2.00;;
58657;SDS011;44428;45.630;13.786;2022-12-11T11:53:56;2.78;;;1.45;;
58657;SDS011;44428;45.630;13.786;2022-12-11T11:56:26;2.25;;;1.35;;
58657;SDS011;44428;45.630;13.786;2022-12-11T11:59:01;2.88;;;1.40;;
58657;SDS011;44428;45.630;13.786;2022-12-11T12:01:46;2.45;;;1.30;;
58657;SDS011;44428;45.630;13.786;2022-12-11T12:04:12;3.03;;;1.58;;
58657;SDS011;44428;45.630;13.786;2022-12-11T12:20:08;2.40;;;1.10;;
58657;SDS011;44428;45.630;13.786;2022-12-11T12:30:53;2.42;;;1.30;;
58657;SDS011;44428;45.630;13.786;2022-12-11T12:33:45;4.57;;;1.30;;
58657;SDS011;44428;45.630;13.786;2022-12-11T12:44:40;4.50;;;2.00;;
58657;SDS011;44428;45.630;13.786;2022-12-11T12:47:16;3.42;;;2.05;;
58657;SDS011;44428;45.630;13.786;2022-12-11T12:49:44;2.45;;;1.42;;
58657;SDS011;44428;45.630;13.786;2022-12-11T12:52:16;2.40;;;1.48;;
58657;SDS011;44428;45.630;13.786;2022-12-11T12:54:51;3.60;;;1.88;;
58657;SDS011;44428;45.630;13.786;2022-12-11T12:57:38;3.35;;;1.80;;
58657;SDS011;44428;45.630;13.786;2022-12-11T13:00:09;3.28;;;1.67;;
58657;SDS011;44428;45.630;13.786;2022-12-11T13:02:37;2.65;;;1.45;;
58657;SDS011;44428;45.630;13.786;2022-12-11T13:05:22;3.67;;;1.50;;
58657;SDS011;44428;45.630;13.786;2022-12-11T13:07:52;3.80;;;1.88;;
58657;SDS011;44428;45.630;13.786;2022-12-11T13:12:54;3.17;;;1.65;;
58657;SDS011;44428;45.630;13.786;2022-12-11T13:17:57;4.35;;;1.70;;
58657;SDS011;44428;45.630;13.786;2022-12-11T13:20:25;4.32;;;1.60;;
58657;SDS011;44428;45.630;13.786;2022-12-11T13:25:31;3.00;;;1.60;;
58657;SDS011;44428;45.630;13.786;2022-12-11T13:28:21;4.13;;;1.90;;
58657;SDS011;44428;45.630;13.786;2022-12-11T13:33:23;3.58;;;1.73;;
58657;SDS011;44428;45.630;13.786;2022-12-11T13:36:11;3.15;;;1.83;;
58657;SDS011;44428;45.630;13.786;2022-12-11T13:38:36;2.55;;;1.42;;
58657;SDS011;44428;45.630;13.786;2022-12-11T13:41:09;3.60;;;1.70;;
58657;SDS011;44428;45.630;13.786;2022-12-11T13:43:37;5.00;;;2.25;;
58657;SDS011;44428;45.630;13.786;2022-12-11T13:46:09;2.65;;;1.40;;
58657;SDS011;44428;45.630;13.786;2022-12-11T13:51:31;4.82;;;2.30;;
58657;SDS011;44428;45.630;13.786;2022-12-11T13:56:52;4.10;;;1.55;;
58657;SDS011;44428;45.630;13.786;2022-12-11T13:59:42;4.00;;;1.98;;
58657;SDS011;44428;45.630;13.786;2022-12-11T14:02:23;3.05;;;1.83;;
58657;SDS011;44428;45.630;13.786;2022-12-11T14:05:07;3.65;;;1.80;;
58657;SDS011;44428;45.630;13.786;2022-12-11T14:07:40;3.60;;;1.90;;
58657;SDS011;44428;45.630;13.786;2022-12-11T14:10:15;3.97;;;1.85;;
58657;SDS011;44428;45.630;13.786;2022-12-11T14:13:05;3.35;;;1.98;;
58657;SDS011;44428;45.630;13.786;2022-12-11T14:15:31;4.20;;;2.22;;
58657;SDS011;44428;45.630;13.786;2022-12-11T14:17:59;3.42;;;1.75;;
58657;SDS011;44428;45.630;13.786;2022-12-11T14:25:55;4.15;;;2.10;;
58657;SDS011;44428;45.630;13.786;2022-12-11T14:28:21;2.97;;;1.52;;
58657;SDS011;44428;45.630;13.786;2022-12-11T14:30:53;4.13;;;2.22;;
58657;SDS011;44428;45.630;13.786;2022-12-11T14:33:22;4.63;;;2.43;;
58657;SDS011;44428;45.630;13.786;2022-12-11T14:35:52;4.90;;;1.70;;
58657;SDS011;44428;45.630;13.786;2022-12-11T14:38:27;3.70;;;1.50;;
58657;SDS011;44428;45.630;13.786;2022-12-11T14:41:06;2.85;;;1.30;;
58657;SDS011;44428;45.630;13.786;2022-12-11T14:43:44;3.47;;;1.65;;
58657;SDS011;44428;45.630;13.786;2022-12-11T14:46:16;3.50;;;1.70;;
58657;SDS011;44428;45.630;13.786;2022-12-11T14:48:47;3.22;;;1.40;;
58657;SDS011;44428;45.630;13.786;2022-12-11T14:53:45;3.72;;;1.80;;
58657;SDS011;44428;45.630;13.786;2022-12-11T14:56:16;3.78;;;1.80;;
58657;SDS011;44428;45.630;13.786;2022-12-11T14:58:49;3.38;;;1.25;;
58657;SDS011;44428;45.630;13.786;2022-12-11T15:01:30;4.30;;;1.67;;
58657;SDS011;44428;45.630;13.786;2022-12-11T15:06:46;3.47;;;1.52;;
58657;SDS011;44428;45.630;13.786;2022-12-11T15:11:45;3.70;;;1.77;;
58657;SDS011;44428;45.630;13.786;2022-12-11T15:14:13;2.55;;;1.20;;
58657;SDS011;44428;45.630;13.786;2022-12-11T15:16:42;2.50;;;1.33;;
58657;SDS011;44428;45.630;13.786;2022-12-11T15:19:21;3.27;;;1.63;;
58657;SDS011;44428;45.630;13.786;2022-12-11T15:22:02;2.85;;;1.38;;
58657;SDS011;44428;45.630;13.786;2022-12-11T15:24:35;3.55;;;1.83;;
58657;SDS011;44428;45.630;13.786;2022-12-11T15:27:04;3.13;;;1.40;;
58657;SDS011;44428;45.630;13.786;2022-12-11T15:32:01;1.90;;;1.00;;
58657;SDS011;44428;45.630;13.786;2022-12-11T15:34:57;3.38;;;1.55;;
58657;SDS011;44428;45.630;13.786;2022-12-11T15:37:25;2.38;;;1.27;;
58657;SDS011;44428;45.630;13.786;2022-12-11T15:39:55;2.83;;;1.20;;
58657;SDS011;44428;45.630;13.786;2022-12-11T15:42:30;2.03;;;1.20;;
58657;SDS011;44428;45.630;13.786;2022-12-11T15:45:00;2.30;;;1.20;;
58657;SDS011;44428;45.630;13.786;2022-12-11T15:47:27;2.58;;;1.55;;
58657;SDS011;44428;45.630;13.786;2022-12-11T15:49:56;3.05;;;1.50;;
58657;SDS011;44428;45.630;13.786;2022-12-11T15:52:27;3.10;;;1.50;;
58657;SDS011;44428;45.630;13.786;2022-12-11T15:54:53;3.88;;;2.63;;
58657;SDS011;44428;45.630;13.786;2022-12-11T15:57:20;3.17;;;1.50;;
58657;SDS011;44428;45.630;13.786;2022-12-11T15:59:48;3.03;;;1.42;;
58657;SDS011;44428;45.630;13.786;2022-12-11T16:02:17;2.63;;;1.25;;
58657;SDS011;44428;45.630;13.786;2022-12-11T16:04:43;3.65;;;1.70;;
58657;SDS011;44428;45.630;13.786;2022-12-11T16:07:14;3.13;;;1.65;;
58657;SDS011;44428;45.630;13.786;2022-12-11T16:09:42;3.75;;;1.67;;
58657;SDS011;44428;45.630;13.786;2022-12-11T16:12:09;2.03;;;1.00;;
58657;SDS011;44428;45.630;13.786;2022-12-11T16:14:35;3.13;;;1.15;;
58657;SDS011;44428;45.630;13.786;2022-12-11T16:17:04;3.28;;;1.60;;
58657;SDS011;44428;45.630;13.786;2022-12-11T16:19:31;3.85;;;1.40;;
58657;SDS011;44428;45.630;13.786;2022-12-11T16:21:57;2.92;;;1.35;;
58657;SDS011;44428;45.630;13.786;2022-12-11T16:24:23;2.50;;;1.45;;
58657;SDS011;44428;45.630;13.786;2022-12-11T16:26:49;3.47;;;1.88;;
58657;SDS011;44428;45.630;13.786;2022-12-11T16:29:14;3.70;;;1.40;;
58657;SDS011;44428;45.630;13.786;2022-12-11T16:31:40;2.42;;;1.20;;
58657;SDS011;44428;45.630;13.786;2022-12-11T16:34:07;4.40;;;2.45;;
58657;SDS011;44428;45.630;13.786;2022-12-11T16:36:32;3.72;;;2.10;;
58657;SDS011;44428;45.630;13.786;2022-12-11T16:38:58;4.82;;;1.95;;
58657;SDS011;44428;45.630;13.786;2022-12-11T16:41:24;6.68;;;2.08;;
58657;SDS011;44428;45.630;13.786;2022-12-11T16:43:50;3.90;;;1.90;;
58657;SDS011;44428;45.630;13.786;2022-12-11T16:46:16;3.45;;;1.80;;